createdAt,value
2022-10-08T00:01:12.075Z,10.77
2022-10-08T00:03:41.262Z,12.82
2022-10-08T00:06:37.243Z,12.13
2022-10-08T00:09:06.850Z,14.65
2022-10-08T00:11:36.901Z,14.65
2022-10-08T00:14:04.696Z,12.60
2022-10-08T00:16:40.349Z,16.45
2022-10-08T00:19:11.214Z,14.95
2022-10-08T00:21:39.913Z,15.98
2022-10-08T00:24:09.336Z,16.27
2022-10-08T00:26:42.627Z,14.25
2022-10-08T00:29:13.565Z,11.02
2022-10-08T00:31:42.215Z,12.20
2022-10-08T00:34:11.986Z,13.85
2022-10-08T00:36:40.808Z,16.45
2022-10-08T00:39:13.621Z,15.23
2022-10-08T00:41:42.100Z,13.30
2022-10-08T00:44:46.416Z,13.77
2022-10-08T00:47:23.179Z,13.25
2022-10-08T00:49:53.499Z,15.50
2022-10-08T00:52:21.773Z,16.48
2022-10-08T00:54:51.485Z,14.68
2022-10-08T00:57:21.136Z,15.63
2022-10-08T00:59:48.061Z,10.27
2022-10-08T01:02:15.546Z,9.82
2022-10-08T01:04:43.535Z,11.32
2022-10-08T01:07:29.545Z,16.95
2022-10-08T01:10:02.456Z,17.15
2022-10-08T01:12:53.919Z,12.77
2022-10-08T01:15:42.338Z,12.50
2022-10-08T01:18:22.435Z,17.98
2022-10-08T01:21:02.503Z,10.35
2022-10-08T01:23:44.403Z,15.95
2022-10-08T01:26:36.575Z,15.57
2022-10-08T01:29:13.860Z,14.05
2022-10-08T01:31:52.779Z,14.27
2022-10-08T01:34:41.629Z,16.75
2022-10-08T01:37:15.802Z,13.75
2022-10-08T01:39:46.052Z,14.70
2022-10-08T01:42:12.858Z,9.15
2022-10-08T01:44:42.193Z,11.73
2022-10-08T01:47:15.874Z,11.15
2022-10-08T01:49:59.041Z,16.95
2022-10-08T01:52:31.003Z,10.50
2022-10-08T01:55:01.943Z,11.75
2022-10-08T01:57:30.805Z,11.48
2022-10-08T02:00:06.261Z,14.90
2022-10-08T02:02:33.291Z,18.20
2022-10-08T02:05:00.302Z,11.05
2022-10-08T02:07:39.949Z,13.40
2022-10-08T02:10:12.565Z,13.20
2022-10-08T02:12:40.560Z,16.35
2022-10-08T02:15:17.471Z,17.13
2022-10-08T02:17:52.794Z,8.90
2022-10-08T02:20:42.341Z,17.27
2022-10-08T02:23:32.218Z,13.40
2022-10-08T02:26:05.270Z,11.82
2022-10-08T02:28:43.502Z,13.75
2022-10-08T02:31:40.848Z,13.50
2022-10-08T02:34:17.000Z,13.02
2022-10-08T02:36:49.231Z,12.00
2022-10-08T02:39:19.118Z,8.32
2022-10-08T02:41:56.891Z,10.07
2022-10-08T02:44:32.736Z,9.52
2022-10-08T02:49:31.988Z,11.73
2022-10-08T02:52:04.000Z,11.80
2022-10-08T02:54:35.344Z,9.75
2022-10-08T02:57:10.523Z,12.45
2022-10-08T02:59:37.937Z,11.32
2022-10-08T03:02:06.154Z,11.93
2022-10-08T03:04:48.030Z,10.70
2022-10-08T03:07:15.666Z,19.95
2022-10-08T03:09:48.734Z,9.77
2022-10-08T03:12:15.715Z,11.18
2022-10-08T03:14:46.806Z,11.25
2022-10-08T03:17:17.798Z,10.15
2022-10-08T03:19:44.614Z,15.45
2022-10-08T03:22:11.491Z,18.17
2022-10-08T03:24:38.603Z,17.52
2022-10-08T03:27:05.449Z,15.35
2022-10-08T03:29:32.243Z,15.73
2022-10-08T03:31:59.027Z,12.30
2022-10-08T03:34:26.388Z,13.10
2022-10-08T03:36:53.165Z,10.43
2022-10-08T03:39:19.930Z,15.15
2022-10-08T03:41:46.675Z,14.05
2022-10-08T03:44:13.522Z,9.65
2022-10-08T03:46:40.451Z,16.58
2022-10-08T03:49:07.195Z,14.85
2022-10-08T03:51:34.040Z,16.83
2022-10-08T03:54:00.816Z,12.95
2022-10-08T03:56:27.595Z,14.88
2022-10-08T03:58:59.233Z,14.50
2022-10-08T04:01:27.203Z,16.13
2022-10-08T04:03:54.353Z,14.70
2022-10-08T04:06:21.677Z,15.90
2022-10-08T04:08:48.439Z,14.95
2022-10-08T04:11:17.260Z,14.65
2022-10-08T04:13:44.601Z,11.43
2022-10-08T04:16:13.991Z,14.13
2022-10-08T04:18:41.125Z,11.52
2022-10-08T04:21:10.307Z,17.23
2022-10-08T04:23:39.431Z,13.70
2022-10-08T04:26:06.608Z,12.82
2022-10-08T04:28:38.289Z,12.57
2022-10-08T04:31:08.355Z,11.48
2022-10-08T04:33:36.374Z,11.00
2022-10-08T04:36:11.114Z,19.08
2022-10-08T04:38:37.863Z,9.75
2022-10-08T04:41:05.958Z,15.15
2022-10-08T04:43:33.599Z,10.65
2022-10-08T04:46:00.416Z,10.85
2022-10-08T04:48:27.433Z,12.88
2022-10-08T04:50:58.729Z,9.50
2022-10-08T04:53:28.143Z,9.48
2022-10-08T04:55:56.177Z,14.40
2022-10-08T04:58:24.906Z,8.63
2022-10-08T05:00:51.877Z,10.25
2022-10-08T05:03:18.705Z,11.60
2022-10-08T05:05:46.502Z,9.05
2022-10-08T05:08:13.449Z,12.55
2022-10-08T05:10:47.283Z,9.07
2022-10-08T05:13:14.020Z,14.82
2022-10-08T05:15:40.797Z,10.23
2022-10-08T05:18:07.583Z,10.50
2022-10-08T05:20:36.390Z,13.57
2022-10-08T05:23:03.174Z,11.23
2022-10-08T05:25:34.342Z,11.55
2022-10-08T05:28:02.040Z,8.68
2022-10-08T05:30:29.078Z,9.95
2022-10-08T05:32:56.139Z,10.95
2022-10-08T05:35:22.976Z,12.52
2022-10-08T05:37:49.704Z,10.30
2022-10-08T05:40:16.612Z,10.48
2022-10-08T05:42:43.366Z,11.40
2022-10-08T05:45:10.717Z,10.77
2022-10-08T05:47:37.483Z,14.20
2022-10-08T05:50:04.892Z,6.25
2022-10-08T05:52:31.631Z,13.63
2022-10-08T05:54:58.412Z,8.10
2022-10-08T05:57:25.212Z,9.30
2022-10-08T05:59:51.935Z,12.27
2022-10-08T06:02:18.736Z,8.35
2022-10-08T06:04:45.683Z,10.93
2022-10-08T06:07:12.448Z,14.07
2022-10-08T06:09:39.202Z,11.43
2022-10-08T06:12:06.627Z,12.32
2022-10-08T06:14:33.365Z,9.98
2022-10-08T06:17:00.155Z,14.07
2022-10-08T06:19:26.981Z,14.43
2022-10-08T06:21:53.707Z,8.77
2022-10-08T06:24:21.639Z,6.78
2022-10-08T06:26:48.507Z,7.80
2022-10-08T06:29:17.598Z,10.57
2022-10-08T06:31:44.866Z,6.88
2022-10-08T06:34:11.785Z,12.88
2022-10-08T06:36:38.544Z,13.07
2022-10-08T06:39:12.193Z,8.38
2022-10-08T06:41:38.949Z,9.00
2022-10-08T06:44:08.488Z,11.88
2022-10-08T06:46:35.664Z,10.00
2022-10-08T06:49:02.974Z,8.13
2022-10-08T06:51:30.163Z,7.53
2022-10-08T06:54:02.817Z,8.75
2022-10-08T06:56:33.825Z,8.48
2022-10-08T06:59:00.634Z,8.00
2022-10-08T07:01:32.954Z,8.73
2022-10-08T07:04:01.385Z,7.25
2022-10-08T07:06:28.978Z,6.68
2022-10-08T07:08:58.115Z,8.55
2022-10-08T07:11:25.981Z,7.60
2022-10-08T07:13:54.655Z,8.15
2022-10-08T07:16:23.495Z,9.10
2022-10-08T07:18:52.280Z,9.27
2022-10-08T07:21:20.436Z,5.32
2022-10-08T07:23:47.396Z,6.65
2022-10-08T07:26:16.661Z,6.93
2022-10-08T07:28:48.973Z,6.32
2022-10-08T07:31:21.741Z,5.15
2022-10-08T07:33:48.675Z,6.88
2022-10-08T07:36:20.696Z,4.10
2022-10-08T07:38:48.221Z,4.90
2022-10-08T07:41:15.313Z,4.18
2022-10-08T07:43:43.082Z,3.42
2022-10-08T07:46:11.763Z,4.15
2022-10-08T07:48:39.459Z,4.53
2022-10-08T07:51:12.122Z,6.15
2022-10-08T07:53:40.241Z,11.38
2022-10-08T07:56:09.026Z,6.18
2022-10-08T07:58:36.515Z,8.30
2022-10-08T08:01:05.768Z,3.67
2022-10-08T08:03:33.366Z,5.75
2022-10-08T08:06:06.261Z,5.40
2022-10-08T08:08:35.739Z,3.47
2022-10-08T08:11:03.904Z,8.02
2022-10-08T08:13:36.773Z,7.43
2022-10-08T08:16:07.416Z,5.82
2022-10-08T08:18:37.320Z,7.32
2022-10-08T08:21:12.808Z,4.50
2022-10-08T08:26:13.298Z,5.18
2022-10-08T08:28:40.590Z,6.70
2022-10-08T08:31:16.539Z,7.53
2022-10-08T08:33:47.053Z,6.28
2022-10-08T08:36:13.818Z,5.80
2022-10-08T08:38:40.613Z,4.22
2022-10-08T08:41:27.509Z,7.25
2022-10-08T08:44:02.506Z,8.77
2022-10-08T08:46:34.301Z,10.55
2022-10-08T08:49:08.079Z,5.20
2022-10-08T08:51:35.284Z,6.18
2022-10-08T08:54:02.170Z,5.28
2022-10-08T08:56:30.938Z,3.97
2022-10-08T08:59:19.186Z,8.38
2022-10-08T09:01:48.487Z,3.75
2022-10-08T09:04:24.892Z,3.58
2022-10-08T09:06:53.422Z,2.95
2022-10-08T09:09:39.465Z,5.53
2022-10-08T09:12:26.975Z,4.28
2022-10-08T09:14:57.793Z,5.13
2022-10-08T09:17:29.867Z,5.80
2022-10-08T09:19:56.840Z,4.32
2022-10-08T09:22:28.086Z,5.18
2022-10-08T09:25:06.001Z,4.68
2022-10-08T09:27:44.757Z,3.65
2022-10-08T09:30:30.349Z,5.95
2022-10-08T09:33:04.914Z,7.47
2022-10-08T09:35:39.901Z,7.25
2022-10-08T09:38:06.825Z,5.07
2022-10-08T09:40:33.626Z,5.10
2022-10-08T09:43:12.079Z,4.50
2022-10-08T09:45:47.859Z,8.15
2022-10-08T09:48:29.058Z,8.35
2022-10-08T09:51:16.351Z,6.22
2022-10-08T09:53:46.715Z,3.65
2022-10-08T09:56:14.927Z,6.30
2022-10-08T09:58:58.588Z,6.47
2022-10-08T10:01:26.055Z,4.93
2022-10-08T10:04:02.044Z,4.80
2022-10-08T10:06:40.117Z,7.82
2022-10-08T10:09:33.332Z,4.38
2022-10-08T10:12:30.060Z,4.22
2022-10-08T10:15:01.624Z,6.68
2022-10-08T10:17:47.660Z,6.05
2022-10-08T10:23:39.411Z,6.93
2022-10-08T10:26:16.585Z,5.80
2022-10-08T10:28:59.095Z,3.40
2022-10-08T10:31:47.188Z,3.78
2022-10-08T10:34:21.983Z,4.47
2022-10-08T10:37:26.214Z,6.75
2022-10-08T10:40:00.009Z,8.07
2022-10-08T10:42:40.017Z,6.53
2022-10-08T10:45:21.239Z,6.88
2022-10-08T10:47:50.982Z,7.07
2022-10-08T10:50:28.107Z,6.03
2022-10-08T10:53:22.100Z,9.82
2022-10-08T10:56:14.628Z,9.90
2022-10-08T10:58:48.584Z,5.80
2022-10-08T11:01:35.645Z,5.75
2022-10-08T11:04:11.514Z,7.95
2022-10-08T11:07:03.824Z,5.28
2022-10-08T11:09:49.020Z,10.35
2022-10-08T11:12:53.914Z,6.63
2022-10-08T11:15:32.929Z,5.88
2022-10-08T11:18:26.165Z,6.72
2022-10-08T11:21:02.389Z,7.05
2022-10-08T11:24:01.561Z,7.25
2022-10-08T11:26:52.889Z,6.47
2022-10-08T11:29:34.202Z,8.18
2022-10-08T11:32:02.039Z,5.97
2022-10-08T11:34:35.182Z,8.02
2022-10-08T11:37:25.111Z,7.93
2022-10-08T11:39:58.546Z,7.90
2022-10-08T11:43:03.149Z,5.47
2022-10-08T11:45:33.513Z,7.25
2022-10-08T11:48:21.454Z,7.82
2022-10-08T11:50:48.377Z,8.82
2022-10-08T11:53:21.546Z,6.07
2022-10-08T11:55:58.050Z,10.82
2022-10-08T11:58:30.540Z,10.07
2022-10-08T12:01:04.731Z,7.82
2022-10-08T12:03:38.854Z,8.77
2022-10-08T12:06:35.689Z,5.63
2022-10-08T12:09:05.874Z,8.85
2022-10-08T12:11:32.586Z,9.35
2022-10-08T12:14:14.499Z,4.28
2022-10-08T12:16:59.079Z,6.72
2022-10-08T12:19:35.663Z,6.30
2022-10-08T12:22:14.465Z,8.38
2022-10-08T12:24:43.779Z,6.63
2022-10-08T12:27:21.659Z,4.75
2022-10-08T12:30:03.928Z,9.48
2022-10-08T12:32:52.410Z,6.70
2022-10-08T12:35:37.570Z,9.55
2022-10-08T12:38:04.227Z,7.25
2022-10-08T12:40:40.423Z,6.72
2022-10-08T12:43:48.082Z,6.18
2022-10-08T12:46:38.745Z,5.25
2022-10-08T12:49:27.311Z,7.35
2022-10-08T12:52:06.785Z,5.93
2022-10-08T12:54:34.225Z,4.63
2022-10-08T12:57:07.411Z,6.00
2022-10-08T12:59:34.194Z,7.97
2022-10-08T13:02:01.143Z,7.50
2022-10-08T13:04:32.390Z,5.53
2022-10-08T13:06:59.710Z,10.60
2022-10-08T13:09:35.124Z,8.75
2022-10-08T13:12:05.129Z,8.90
2022-10-08T13:14:38.521Z,7.55
2022-10-08T13:17:06.050Z,7.75
2022-10-08T13:19:38.676Z,6.40
2022-10-08T13:22:08.155Z,8.13
2022-10-08T13:24:40.696Z,4.88
2022-10-08T13:27:31.912Z,7.90
2022-10-08T13:30:00.171Z,5.85
2022-10-08T13:32:30.144Z,5.68
2022-10-08T13:35:01.659Z,6.38
2022-10-08T13:37:39.311Z,5.32
2022-10-08T13:40:19.264Z,3.35
2022-10-08T13:42:51.876Z,4.03
2022-10-08T13:45:20.486Z,7.80
2022-10-08T13:47:47.415Z,4.90
2022-10-08T13:50:14.865Z,4.78
2022-10-08T13:52:47.010Z,5.05
2022-10-08T13:55:32.621Z,5.15
2022-10-08T13:58:02.113Z,5.65
2022-10-08T14:00:35.267Z,5.18
2022-10-08T14:03:03.058Z,4.97
2022-10-08T14:05:32.552Z,6.10
2022-10-08T14:08:05.778Z,16.05
2022-10-08T14:10:34.139Z,4.18
2022-10-08T14:13:00.870Z,6.13
2022-10-08T14:15:27.680Z,7.63
2022-10-08T14:17:54.528Z,7.07
2022-10-08T14:20:21.379Z,11.63
2022-10-08T14:22:48.185Z,6.65
2022-10-08T14:25:21.433Z,7.03
2022-10-08T14:27:48.643Z,6.43
2022-10-08T14:30:16.198Z,8.43
2022-10-08T14:32:43.684Z,6.65
2022-10-08T14:35:11.944Z,5.57
2022-10-08T14:37:39.141Z,7.97
2022-10-08T14:40:08.383Z,9.32
2022-10-08T14:42:35.199Z,5.60
2022-10-08T14:45:02.234Z,4.82
2022-10-08T14:47:29.097Z,7.43
2022-10-08T14:49:55.900Z,9.73
2022-10-08T14:52:22.901Z,4.10
2022-10-08T14:54:49.679Z,5.30
2022-10-08T14:57:16.484Z,5.97
2022-10-08T14:59:43.237Z,6.30
2022-10-08T15:02:10.882Z,9.18
2022-10-08T15:04:38.221Z,7.93
2022-10-08T15:07:05.313Z,8.73
2022-10-08T15:09:32.202Z,5.78
2022-10-08T15:11:59.005Z,6.97
2022-10-08T15:14:25.991Z,4.78
2022-10-08T15:16:52.813Z,4.88
2022-10-08T15:19:23.855Z,7.22
2022-10-08T15:21:51.145Z,9.32
2022-10-08T15:24:18.045Z,7.25
2022-10-08T15:26:44.859Z,3.45
2022-10-08T15:29:11.806Z,3.85
2022-10-08T15:31:38.726Z,4.22
2022-10-08T15:34:05.606Z,9.27
2022-10-08T15:36:36.269Z,5.38
2022-10-08T15:39:12.108Z,5.05
2022-10-08T15:44:16.402Z,5.22
2022-10-08T15:46:43.234Z,5.90
2022-10-08T15:49:10.154Z,6.47
2022-10-08T15:51:36.945Z,9.30
2022-10-08T15:54:04.106Z,6.82
2022-10-08T15:56:31.053Z,12.80
2022-10-08T15:58:58.957Z,6.68
2022-10-08T16:01:26.295Z,11.38
2022-10-08T16:03:55.182Z,8.18
2022-10-08T16:06:28.631Z,5.53
2022-10-08T16:08:58.221Z,6.65
2022-10-08T16:11:27.848Z,10.45
2022-10-08T16:13:58.542Z,8.35
2022-10-08T16:16:25.332Z,7.57
2022-10-08T16:19:00.098Z,8.75
2022-10-08T16:21:28.897Z,6.57
2022-10-08T16:23:57.108Z,7.43
2022-10-08T16:26:25.579Z,5.70
2022-10-08T16:28:57.186Z,10.25
2022-10-08T16:31:26.314Z,6.70
2022-10-08T16:34:01.308Z,4.90
2022-10-08T16:36:29.860Z,8.40
2022-10-08T16:38:57.734Z,7.82
2022-10-08T16:41:30.350Z,5.75
2022-10-08T16:43:58.842Z,9.40
2022-10-08T16:46:28.877Z,7.68
2022-10-08T16:49:04.842Z,19.52
2022-10-08T16:51:35.669Z,8.45
2022-10-08T16:54:03.967Z,6.88
2022-10-08T16:56:34.701Z,10.48
2022-10-08T16:59:06.490Z,9.90
2022-10-08T17:01:34.383Z,5.68
2022-10-08T17:04:01.358Z,9.77
2022-10-08T17:06:29.103Z,7.32
2022-10-08T17:08:55.986Z,12.13
2022-10-08T17:11:22.931Z,6.40
2022-10-08T17:13:55.667Z,6.95
2022-10-08T17:16:24.521Z,8.60
2022-10-08T17:18:52.879Z,6.60
2022-10-08T17:21:20.161Z,9.30
2022-10-08T17:23:47.124Z,8.13
2022-10-08T17:26:16.856Z,8.43
2022-10-08T17:28:45.551Z,8.27
2022-10-08T17:31:15.565Z,11.43
2022-10-08T17:33:43.121Z,11.48
2022-10-08T17:36:16.105Z,10.75
2022-10-08T17:38:44.218Z,7.68
2022-10-08T17:41:20.399Z,6.88
2022-10-08T17:43:48.067Z,8.13
2022-10-08T17:46:26.459Z,9.90
2022-10-08T17:48:53.850Z,10.13
2022-10-08T17:51:23.090Z,5.50
2022-10-08T17:53:55.038Z,10.48
2022-10-08T17:56:22.647Z,10.63
2022-10-08T17:58:49.740Z,7.32
2022-10-08T18:01:17.861Z,7.22
2022-10-08T18:03:50.531Z,5.70
2022-10-08T18:06:18.403Z,8.40
2022-10-08T18:08:45.536Z,5.35
2022-10-08T18:11:14.388Z,10.82
2022-10-08T18:13:41.494Z,8.85
2022-10-08T18:16:12.466Z,6.95
2022-10-08T18:18:39.837Z,12.02
2022-10-08T18:21:07.671Z,6.30
2022-10-08T18:23:36.072Z,7.32
2022-10-08T18:26:24.424Z,7.00
2022-10-08T18:28:54.205Z,7.93
2022-10-08T18:31:22.857Z,8.68
2022-10-08T18:33:51.633Z,7.63
2022-10-08T18:36:21.330Z,5.15
2022-10-08T18:38:53.317Z,7.40
2022-10-08T18:41:23.202Z,7.53
2022-10-08T18:43:50.193Z,9.07
2022-10-08T18:46:19.539Z,5.22
2022-10-08T18:48:46.740Z,5.07
2022-10-08T18:51:22.545Z,13.93
2022-10-08T18:53:50.419Z,5.45
2022-10-08T18:56:20.170Z,6.00
2022-10-08T18:58:47.478Z,9.85
2022-10-08T19:01:22.991Z,4.53
2022-10-08T19:03:52.101Z,5.93
2022-10-08T19:06:20.822Z,4.95
2022-10-08T19:08:47.953Z,7.40
2022-10-08T19:11:17.895Z,4.07
2022-10-08T19:13:45.013Z,4.20
2022-10-08T19:16:15.634Z,6.07
2022-10-08T19:18:44.056Z,3.33
2022-10-08T19:21:13.257Z,5.10
2022-10-08T19:23:40.458Z,6.80
2022-10-08T19:26:07.471Z,4.00
2022-10-08T19:28:37.282Z,6.68
2022-10-08T19:31:14.429Z,4.63
2022-10-08T19:33:41.595Z,7.13
2022-10-08T19:36:08.885Z,5.78
2022-10-08T19:38:35.764Z,6.95
2022-10-08T19:41:07.710Z,6.00
2022-10-08T19:43:34.567Z,5.72
2022-10-08T19:46:03.452Z,6.20
2022-10-08T19:48:31.407Z,9.55
2022-10-08T19:51:07.476Z,6.47
2022-10-08T19:53:35.193Z,4.88
2022-10-08T19:56:08.209Z,6.55
2022-10-08T19:58:36.045Z,6.90
2022-10-08T20:01:14.355Z,6.45
2022-10-08T20:03:41.914Z,7.38
2022-10-08T20:06:11.172Z,8.50
2022-10-08T20:08:38.384Z,7.00
2022-10-08T20:11:16.216Z,5.53
2022-10-08T20:13:44.831Z,3.72
2022-10-08T20:16:14.717Z,6.75
2022-10-08T20:18:41.519Z,8.65
2022-10-08T20:21:10.729Z,4.28
2022-10-08T20:23:39.150Z,8.07
2022-10-08T20:26:16.599Z,9.45
2022-10-08T20:28:44.757Z,6.10
2022-10-08T20:31:18.082Z,8.25
2022-10-08T20:33:46.169Z,6.80
2022-10-08T20:36:15.683Z,7.65
2022-10-08T20:38:43.861Z,7.75
2022-10-08T20:41:11.090Z,6.65
2022-10-08T20:43:39.138Z,8.18
2022-10-08T20:46:11.402Z,10.07
2022-10-08T20:48:40.334Z,13.05
2022-10-08T20:51:13.336Z,6.70
2022-10-08T20:53:40.480Z,7.15
2022-10-08T20:56:10.781Z,7.90
2022-10-08T20:58:38.175Z,7.45
2022-10-08T21:01:17.576Z,5.18
2022-10-08T21:03:45.371Z,5.13
2022-10-08T21:06:17.308Z,7.05
2022-10-08T21:08:46.841Z,10.27
2022-10-08T21:11:16.690Z,5.82
2022-10-08T21:13:44.202Z,5.38
2022-10-08T21:16:19.154Z,6.95
2022-10-08T21:18:53.273Z,6.90
2022-10-08T21:21:20.734Z,7.75
2022-10-08T21:23:50.809Z,5.75
2022-10-08T21:26:23.473Z,7.80
2022-10-08T21:28:52.466Z,5.25
2022-10-08T21:31:22.854Z,5.93
2022-10-08T21:33:51.762Z,4.68
2022-10-08T21:36:23.986Z,4.65
2022-10-08T21:38:54.213Z,6.60
2022-10-08T21:41:22.875Z,6.13
2022-10-08T21:43:52.275Z,8.73
2022-10-08T21:46:21.827Z,9.13
2022-10-08T21:48:53.899Z,4.80
2022-10-08T21:51:21.088Z,8.23
2022-10-08T21:53:53.000Z,4.82
2022-10-08T21:56:22.756Z,5.47
2022-10-08T21:58:52.217Z,9.43
2022-10-08T22:01:30.634Z,6.90
2022-10-08T22:04:13.644Z,7.82
2022-10-08T22:06:44.764Z,9.85
2022-10-08T22:09:15.204Z,5.13
2022-10-08T22:11:43.023Z,8.27
2022-10-08T22:14:09.923Z,6.88
2022-10-08T22:16:37.193Z,7.45
2022-10-08T22:19:04.997Z,5.97
2022-10-08T22:21:32.364Z,8.85
2022-10-08T22:23:59.171Z,8.90
2022-10-08T22:26:31.592Z,11.32
2022-10-08T22:28:59.092Z,7.47
2022-10-08T22:31:26.966Z,8.85
2022-10-08T22:33:54.280Z,8.20
2022-10-08T22:36:24.022Z,8.68
2022-10-08T22:38:51.399Z,8.43
2022-10-08T22:41:21.018Z,8.40
2022-10-08T22:43:48.663Z,11.40
2022-10-08T22:46:18.155Z,10.40
2022-10-08T22:48:45.101Z,8.07
2022-10-08T22:51:17.494Z,10.90
2022-10-08T22:53:44.763Z,9.73
2022-10-08T22:56:15.054Z,7.47
2022-10-08T22:58:41.906Z,10.70
2022-10-08T23:01:11.677Z,9.25
2022-10-08T23:03:39.129Z,7.95
2022-10-08T23:06:26.351Z,8.95
2022-10-08T23:08:58.693Z,9.05
2022-10-08T23:11:26.391Z,7.80
2022-10-08T23:13:55.448Z,9.88
2022-10-08T23:16:23.384Z,8.90
2022-10-08T23:18:59.010Z,9.68
2022-10-08T23:21:26.373Z,9.88
2022-10-08T23:23:54.065Z,6.97
2022-10-08T23:26:21.417Z,9.38
2022-10-08T23:28:58.759Z,7.28
2022-10-08T23:31:27.925Z,8.23
2022-10-08T23:33:55.832Z,10.98
2022-10-08T23:36:29.361Z,10.65
2022-10-08T23:38:56.799Z,8.68
2022-10-08T23:41:24.606Z,8.25
2022-10-08T23:43:52.532Z,10.65
2022-10-08T23:46:22.095Z,13.23
2022-10-08T23:48:49.691Z,8.52
2022-10-08T23:51:17.295Z,7.22
2022-10-08T23:53:45.381Z,11.50
2022-10-08T23:56:12.950Z,10.73
2022-10-08T23:58:40.290Z,9.30
